Time;durP1;ratioP1;P1;durP2;ratioP2;P2;SDS_P1;SDS_P2;PMS_P1;PMS_P2;Temp;Humidity;BMP_temperature;BMP_pressure;BME280_temperature;BME280_humidity;BME280_pressure;Samples;Min_cycle;Max_cycle;Signal;HPM_P1;HPM_P2
2023/01/28 00:01:11;;;;;;;7.47;4.85;;;5.90;97.40;;;;;;5034168;28;20049;-68
2023/01/28 00:03:37;;;;;;;5.32;4.78;;;5.90;97.70;;;;;;5034791;28;20516;-68
2023/01/28 00:06:21;;;;;;;5.80;4.65;;;5.90;97.60;;;;;;5034118;28;20032;-68
2023/01/28 00:08:47;;;;;;;5.53;4.82;;;5.90;97.60;;;;;;5034479;28;20091;-68
2023/01/28 00:11:13;;;;;;;5.55;4.78;;;5.80;97.10;;;;;;5034159;28;20039;-68
2023/01/28 00:13:39;;;;;;;4.93;4.32;;;5.90;97.40;;;;;;5034173;28;20448;-68
2023/01/28 00:16:09;;;;;;;5.07;4.57;;;5.90;97.30;;;;;;5034086;28;20068;-68
2023/01/28 00:18:35;;;;;;;5.03;4.43;;;6.00;97.30;;;;;;5033074;28;20117;-68
2023/01/28 00:21:06;;;;;;;5.35;4.82;;;6.00;97.30;;;;;;5033984;28;20075;-68
2023/01/28 00:23:35;;;;;;;6.90;4.97;;;6.10;97.00;;;;;;5033913;28;20087;-68
2023/01/28 00:26:02;;;;;;;5.93;4.75;;;6.00;97.10;;;;;;5033955;28;20025;-68
2023/01/28 00:28:28;;;;;;;5.22;4.72;;;6.10;97.20;;;;;;5033808;28;20030;-68
2023/01/28 00:30:54;;;;;;;5.07;4.50;;;6.20;97.20;;;;;;5033859;28;20044;-70
2023/01/28 00:33:20;;;;;;;5.28;4.50;;;6.30;97.10;;;;;;5033809;28;20030;-68
2023/01/28 00:35:46;;;;;;;5.03;4.53;;;6.50;97.00;;;;;;5034335;28;20029;-68
2023/01/28 00:38:11;;;;;;;6.32;4.90;;;6.50;96.90;;;;;;5032985;28;20037;-68
2023/01/28 00:40:37;;;;;;;5.20;4.70;;;6.50;96.80;;;;;;5033820;28;20029;-68
2023/01/28 00:43:03;;;;;;;6.30;5.38;;;6.50;96.90;;;;;;5033463;28;20033;-68
2023/01/28 00:45:28;;;;;;;7.40;6.20;;;6.60;96.90;;;;;;5032482;28;20030;-68
2023/01/28 00:47:54;;;;;;;6.80;5.80;;;6.60;96.80;;;;;;5033785;28;20132;-68
2023/01/28 00:50:20;;;;;;;7.28;6.13;;;6.50;96.40;;;;;;5032786;28;20484;-68
2023/01/28 00:52:47;;;;;;;7.53;6.43;;;6.40;96.40;;;;;;5033639;28;20021;-68
2023/01/28 00:55:13;;;;;;;6.50;5.80;;;6.40;96.50;;;;;;5034063;28;20025;-68
2023/01/28 00:57:39;;;;;;;6.50;5.78;;;6.30;96.70;;;;;;5033234;28;20030;-68
2023/01/28 01:00:05;;;;;;;7.00;6.30;;;6.40;96.80;;;;;;5033804;28;20029;-68
2023/01/28 01:02:32;;;;;;;6.63;5.93;;;6.40;96.80;;;;;;5036742;28;20054;-68
2023/01/28 01:04:58;;;;;;;7.07;6.13;;;6.40;96.80;;;;;;5037326;28;20041;-68
2023/01/28 01:07:41;;;;;;;8.38;6.70;;;6.40;96.50;;;;;;5036287;28;20397;-68
2023/01/28 01:10:10;;;;;;;7.53;6.50;;;6.30;96.50;;;;;;5036733;28;20033;-68
2023/01/28 01:12:37;;;;;;;6.57;5.90;;;6.20;96.60;;;;;;5037141;28;20116;-68
2023/01/28 01:15:07;;;;;;;7.05;5.93;;;6.20;96.60;;;;;;5037210;28;20030;-68
2023/01/28 01:17:33;;;;;;;7.50;6.28;;;6.20;96.30;;;;;;5037880;28;20029;-68
2023/01/28 01:19:59;;;;;;;6.80;6.03;;;5.80;96.50;;;;;;5037625;28;20489;-68
2023/01/28 01:22:24;;;;;;;7.78;6.75;;;5.80;97.00;;;;;;5037278;28;20038;-68
2023/01/28 01:24:50;;;;;;;8.35;6.93;;;5.90;97.10;;;;;;5037214;28;20037;-68
2023/01/28 01:27:15;;;;;;;8.77;7.13;;;5.70;97.10;;;;;;5035751;28;20033;-68
2023/01/28 01:29:41;;;;;;;8.48;6.63;;;5.60;97.50;;;;;;5037366;28;20045;-68
2023/01/28 01:32:07;;;;;;;8.20;6.85;;;5.60;97.70;;;;;;5036839;28;20040;-68
2023/01/28 01:34:32;;;;;;;7.38;6.57;;;5.70;97.50;;;;;;5037028;28;20029;-68
2023/01/28 01:36:58;;;;;;;7.30;6.40;;;5.80;97.30;;;;;;5037267;28;20030;-68
2023/01/28 01:39:24;;;;;;;8.90;6.25;;;5.80;97.30;;;;;;5036934;28;20030;-68
2023/01/28 01:41:49;;;;;;;8.07;6.75;;;5.80;97.00;;;;;;5036971;28;20087;-68
2023/01/28 01:44:56;;;;;;;7.22;6.00;;;5.80;96.80;;;;;;5036794;28;20041;-68
2023/01/28 01:47:55;;;;;;;6.15;5.55;;;5.70;97.10;;;;;;5036534;28;20108;-68
2023/01/28 01:50:28;;;;;;;6.10;5.35;;;5.70;96.60;;;;;;5037067;28;20033;-68
2023/01/28 01:53:08;;;;;;;6.55;5.15;;;5.60;96.50;;;;;;5037034;28;20064;-68
2023/01/28 01:55:35;;;;;;;6.00;5.40;;;5.70;96.60;;;;;;5037053;28;20156;-68
2023/01/28 01:58:07;;;;;;;5.28;4.78;;;5.80;96.20;;;;;;5036519;28;20033;-68
2023/01/28 02:00:33;;;;;;;5.68;5.03;;;5.80;96.10;;;;;;5037179;28;20363;-68
2023/01/28 02:02:58;;;;;;;5.10;4.60;;;5.90;95.30;;;;;;5036936;28;20049;-68
2023/01/28 02:05:24;;;;;;;5.63;5.03;;;5.80;95.20;;;;;;5035172;28;20535;-68
2023/01/28 02:08:38;;;;;;;5.60;4.80;;;5.80;95.20;;;;;;5036103;28;20489;-68
2023/01/28 02:10:39;;;;;;;5.30;4.80;;;5.80;94.70;;;;;;5028875;28;20037;-68
2023/01/28 02:13:04;;;;;;;5.97;5.15;;;5.90;94.90;;;;;;5034279;28;20037;-68
2023/01/28 02:15:30;;;;;;;5.68;5.07;;;5.90;94.60;;;;;;5036372;28;20061;-68
2023/01/28 02:17:56;;;;;;;6.55;5.50;;;5.80;94.70;;;;;;5036426;28;20120;-68
2023/01/28 02:20:29;;;;;;;8.95;6.35;;;5.90;94.80;;;;;;5036512;28;20033;-69
2023/01/28 02:23:17;;;;;;;6.40;5.35;;;6.00;94.80;;;;;;5036173;28;20076;-68
2023/01/28 02:26:06;;;;;;;6.25;5.60;;;6.00;94.90;;;;;;5035453;28;20029;-68
2023/01/28 02:28:53;;;;;;;6.20;5.60;;;6.10;95.00;;;;;;5036328;28;20030;-68
2023/01/28 02:31:50;;;;;;;7.70;6.18;;;6.10;95.00;;;;;;5037320;28;20026;-68
2023/01/28 02:34:37;;;;;;;7.32;6.53;;;6.20;95.10;;;;;;5036099;28;20030;-68
2023/01/28 02:37:15;;;;;;;7.45;6.43;;;6.20;95.10;;;;;;5034652;28;20113;-68
2023/01/28 02:39:55;;;;;;;8.45;6.68;;;6.30;95.10;;;;;;5036423;28;20030;-68
2023/01/28 02:42:28;;;;;;;7.60;6.80;;;6.30;95.20;;;;;;5036687;28;20036;-68
2023/01/28 02:44:54;;;;;;;8.07;6.95;;;6.30;95.20;;;;;;5035848;28;20458;-68
2023/01/28 02:48:05;;;;;;;12.15;8.23;;;6.20;95.20;;;;;;5035940;28;20044;-68
2023/01/28 02:50:13;;;;;;;9.38;8.32;;;6.20;95.50;;;;;;5031891;28;20049;-68
2023/01/28 02:55:44;;;;;;;10.07;8.27;;;6.20;95.70;;;;;;5035679;28;20090;-69
2023/01/28 02:58:19;;;;;;;9.60;7.88;;;6.10;95.60;;;;;;5035552;28;20100;-68
2023/01/28 03:00:53;;;;;;;11.07;8.52;;;6.10;95.50;;;;;;5035105;28;20033;-68
2023/01/28 03:03:52;;;;;;;9.40;8.05;;;6.00;95.80;;;;;;5036127;28;20045;-68
2023/01/28 03:06:22;;;;;;;9.57;7.88;;;6.00;95.90;;;;;;5034130;28;20037;-68
2023/01/28 03:36:54;;;;;;;10.23;8.25;;;5.90;95.80;;;;;;5034802;28;20029;-68
2023/01/28 03:39:27;;;;;;;10.23;8.25;;;5.80;95.70;;;;;;5034735;28;20029;-68
2023/01/28 03:41:59;;;;;;;9.00;7.65;;;5.80;95.80;;;;;;5035268;28;20083;-68
2023/01/28 03:47:11;;;;;;;10.35;8.52;;;5.90;95.70;;;;;;5034850;28;20488;-68
2023/01/28 03:49:41;;;;;;;9.93;8.05;;;5.90;94.70;;;;;;5033127;28;20458;-68
2023/01/28 03:52:07;;;;;;;9.32;7.82;;;5.80;94.90;;;;;;5034844;28;20052;-68
2023/01/28 03:54:33;;;;;;;10.75;8.35;;;5.90;94.90;;;;;;5034406;28;20033;-68
2023/01/28 03:56:58;;;;;;;10.52;8.10;;;5.80;94.50;;;;;;5034648;28;20029;-68
2023/01/28 03:59:24;;;;;;;9.73;8.43;;;5.80;94.50;;;;;;5033201;28;20025;-68
2023/01/28 04:01:49;;;;;;;9.32;7.93;;;5.70;93.70;;;;;;5032989;28;20174;-68
2023/01/28 04:04:23;;;;;;;9.75;8.38;;;5.40;93.60;;;;;;5034032;28;20064;-68
2023/01/28 04:06:50;;;;;;;11.23;7.43;;;5.30;94.10;;;;;;5033511;28;20033;-68
2023/01/28 04:09:16;;;;;;;11.23;8.68;;;5.20;94.30;;;;;;5034239;28;20120;-68
2023/01/28 04:11:41;;;;;;;10.50;8.50;;;5.30;94.60;;;;;;5034408;28;20137;-68
2023/01/28 04:14:07;;;;;;;11.07;8.60;;;5.10;94.80;;;;;;5034642;28;20037;-68
2023/01/28 04:16:33;;;;;;;10.15;8.30;;;5.00;95.20;;;;;;5034088;28;20386;-68
2023/01/28 04:18:58;;;;;;;11.43;8.07;;;5.00;95.50;;;;;;5032819;28;20037;-69
2023/01/28 04:21:24;;;;;;;10.10;8.27;;;5.00;95.50;;;;;;5033708;28;20386;-68
2023/01/28 04:23:50;;;;;;;9.85;8.30;;;4.90;95.70;;;;;;5033721;28;20183;-68
2023/01/28 04:26:15;;;;;;;10.70;7.60;;;5.00;95.60;;;;;;5033791;28;20547;-68
2023/01/28 04:28:41;;;;;;;8.55;7.50;;;5.00;94.90;;;;;;5032403;28;20041;-68
2023/01/28 04:31:07;;;;;;;9.02;7.45;;;5.10;94.70;;;;;;5034128;28;20040;-69
2023/01/28 04:33:32;;;;;;;8.93;7.32;;;5.10;93.90;;;;;;5032424;28;20367;-68
2023/01/28 04:35:58;;;;;;;7.93;6.60;;;5.10;94.10;;;;;;5031948;28;20030;-69
2023/01/28 04:38:23;;;;;;;8.32;7.22;;;5.20;94.10;;;;;;5033845;28;20037;-68
2023/01/28 04:40:53;;;;;;;8.43;7.30;;;5.30;94.20;;;;;;5033725;28;20033;-69
2023/01/28 04:43:19;;;;;;;10.18;7.95;;;5.40;94.10;;;;;;5033744;28;20036;-68
2023/01/28 04:45:48;;;;;;;10.57;7.60;;;5.30;93.60;;;;;;5033668;28;20026;-68
2023/01/28 04:48:15;;;;;;;9.38;8.00;;;5.30;93.80;;;;;;5033491;28;20021;-68
2023/01/28 04:50:41;;;;;;;9.93;7.78;;;5.00;93.50;;;;;;5033878;28;20425;-68
2023/01/28 04:53:07;;;;;;;8.32;7.32;;;4.90;94.10;;;;;;5033692;28;20037;-68
2023/01/28 04:55:33;;;;;;;9.82;7.88;;;4.80;94.30;;;;;;5033583;28;20030;-69
2023/01/28 04:57:58;;;;;;;10.80;7.93;;;4.80;94.50;;;;;;5033530;28;20040;-68
2023/01/28 05:00:24;;;;;;;10.05;8.13;;;4.90;94.60;;;;;;5034393;28;20108;-68
2023/01/28 05:02:50;;;;;;;9.73;7.90;;;5.00;94.40;;;;;;5032380;28;20053;-68
2023/01/28 05:05:16;;;;;;;9.32;7.70;;;5.00;94.40;;;;;;5033789;28;20026;-68
2023/01/28 05:07:42;;;;;;;10.18;8.02;;;5.10;94.40;;;;;;5033825;28;20378;-68
2023/01/28 05:10:08;;;;;;;9.23;8.20;;;5.20;94.20;;;;;;5033338;28;20037;-68
2023/01/28 05:12:33;;;;;;;8.35;7.55;;;5.30;94.00;;;;;;5033375;28;20037;-68
2023/01/28 05:15:00;;;;;;;9.80;7.72;;;5.40;94.30;;;;;;5033496;28;20025;-68
2023/01/28 05:17:26;;;;;;;8.98;7.95;;;5.40;93.30;;;;;;5033363;28;20026;-68
2023/01/28 05:19:52;;;;;;;10.00;8.20;;;5.30;93.30;;;;;;5033089;28;20041;-68
2023/01/28 05:22:18;;;;;;;9.35;8.32;;;5.20;93.40;;;;;;5033382;28;20036;-69
2023/01/28 05:24:43;;;;;;;9.10;7.80;;;5.20;93.50;;;;;;5032143;28;20069;-68
2023/01/28 05:27:09;;;;;;;8.88;7.38;;;5.00;93.20;;;;;;5033349;28;20034;-68
2023/01/28 05:29:35;;;;;;;9.68;7.97;;;4.90;93.20;;;;;;5033688;28;20090;-68
2023/01/28 05:32:01;;;;;;;10.27;8.02;;;4.90;93.10;;;;;;5031965;28;20049;-68
2023/01/28 05:34:26;;;;;;;11.13;8.23;;;4.80;93.00;;;;;;5033293;28;20083;-68
2023/01/28 05:36:52;;;;;;;12.25;8.55;;;4.60;93.00;;;;;;5031930;28;20029;-68
2023/01/28 05:39:18;;;;;;;11.35;8.57;;;4.40;93.20;;;;;;5033205;28;20037;-68
2023/01/28 05:41:43;;;;;;;12.95;9.18;;;4.40;93.30;;;;;;5032886;28;20371;-68
2023/01/28 05:44:09;;;;;;;10.32;8.10;;;4.20;93.50;;;;;;5032316;28;20071;-68
2023/01/28 05:46:35;;;;;;;11.25;8.98;;;4.10;93.90;;;;;;5033175;28;20057;-68
2023/01/28 05:49:01;;;;;;;12.50;8.90;;;4.30;94.00;;;;;;5037086;28;20038;-68
2023/01/28 05:51:26;;;;;;;12.70;8.60;;;4.40;94.00;;;;;;5037556;28;20363;-68
2023/01/28 05:53:52;;;;;;;13.43;10.00;;;4.60;93.90;;;;;;5035618;28;20113;-68
2023/01/28 05:56:18;;;;;;;12.35;8.65;;;4.70;93.40;;;;;;5036654;28;20029;-68
2023/01/28 05:58:43;;;;;;;13.25;8.63;;;4.60;93.30;;;;;;5036675;28;20065;-68
2023/01/28 06:01:09;;;;;;;12.48;9.77;;;4.60;93.60;;;;;;5036667;28;20021;-68
2023/01/28 06:03:35;;;;;;;13.32;9.80;;;4.50;93.30;;;;;;5035604;28;20033;-68
2023/01/28 06:06:00;;;;;;;11.90;9.00;;;4.40;93.40;;;;;;5036385;28;20037;-68
2023/01/28 06:08:26;;;;;;;12.10;10.02;;;4.40;93.70;;;;;;5019055;28;20033;-68
2023/01/28 06:10:52;;;;;;;12.80;9.55;;;4.50;93.70;;;;;;5036546;28;20029;-68
2023/01/28 06:13:17;;;;;;;11.43;8.85;;;4.40;93.20;;;;;;5036228;28;20026;-69
2023/01/28 06:15:43;;;;;;;11.90;9.40;;;4.30;93.40;;;;;;5036185;28;20484;-68
2023/01/28 06:18:08;;;;;;;14.25;9.65;;;4.30;93.60;;;;;;5036183;28;20488;-68
2023/01/28 06:20:34;;;;;;;12.77;9.32;;;4.40;93.40;;;;;;5034939;28;20125;-68
2023/01/28 06:23:00;;;;;;;12.93;9.30;;;4.50;93.60;;;;;;5018397;28;20134;-68
2023/01/28 06:25:26;;;;;;;10.35;8.35;;;4.60;93.60;;;;;;5036022;28;20030;-68
2023/01/28 06:27:51;;;;;;;10.85;8.38;;;4.80;93.50;;;;;;5036021;28;20025;-68
2023/01/28 06:30:17;;;;;;;12.68;9.50;;;5.00;93.50;;;;;;5018595;28;20354;-68
2023/01/28 06:32:43;;;;;;;10.98;8.80;;;5.10;92.90;;;;;;5035891;28;20459;-68
2023/01/28 06:35:09;;;;;;;11.80;9.30;;;5.10;92.80;;;;;;5034654;28;20037;-67
2023/01/28 06:37:35;;;;;;;10.88;8.65;;;5.20;92.60;;;;;;5017991;28;20034;-68
2023/01/28 06:40:01;;;;;;;13.95;10.13;;;5.10;92.00;;;;;;5036075;28;20036;-68
2023/01/28 06:42:27;;;;;;;11.25;8.98;;;4.90;92.10;;;;;;5035977;28;20029;-68
2023/01/28 06:44:53;;;;;;;11.98;9.70;;;4.90;92.70;;;;;;5035618;28;20030;-68
2023/01/28 06:47:18;;;;;;;11.70;9.45;;;5.00;92.60;;;;;;5017971;28;20026;-69
2023/01/28 06:49:44;;;;;;;11.30;8.60;;;4.90;92.30;;;;;;5017670;28;20036;-67
2023/01/28 06:52:10;;;;;;;12.18;9.60;;;4.90;92.60;;;;;;5035389;28;20462;-67
2023/01/28 06:54:35;;;;;;;12.25;9.80;;;5.00;92.50;;;;;;5035066;28;20374;-67
2023/01/28 06:57:01;;;;;;;10.80;9.40;;;5.10;92.10;;;;;;5035416;28;20079;-68
2023/01/28 06:59:27;;;;;;;9.77;8.48;;;5.10;92.10;;;;;;5034558;28;20112;-67
2023/01/28 07:01:52;;;;;;;12.68;10.35;;;5.20;92.10;;;;;;5033899;28;20054;-67
2023/01/28 07:04:18;;;;;;;11.45;9.32;;;5.10;91.70;;;;;;5035514;28;20153;-67
2023/01/28 07:06:43;;;;;;;11.23;9.73;;;5.10;91.90;;;;;;5035538;28;20104;-66
2023/01/28 07:09:09;;;;;;;12.23;10.60;;;5.10;92.00;;;;;;5035303;28;20111;-70
2023/01/28 07:11:35;;;;;;;11.90;9.60;;;5.20;92.00;;;;;;5035032;28;20029;-70
2023/01/28 07:14:00;;;;;;;11.77;7.03;;;5.10;91.90;;;;;;5033818;28;20044;-69
2023/01/28 07:16:26;;;;;;;9.55;7.43;;;5.10;93.00;;;;;;5035214;28;20041;-67
2023/01/28 07:18:52;;;;;;;10.93;9.45;;;5.30;95.10;;;;;;5035024;28;20037;-67
2023/01/28 07:21:17;;;;;;;11.30;10.10;;;5.40;94.20;;;;;;5034808;28;20026;-67
2023/01/28 07:23:43;;;;;;;11.32;10.13;;;5.50;94.00;;;;;;5033665;28;20029;-67
2023/01/28 07:26:08;;;;;;;11.15;9.25;;;5.50;92.80;;;;;;5035037;28;20076;-67
2023/01/28 07:28:34;;;;;;;11.00;9.40;;;5.50;93.30;;;;;;5034827;28;20056;-67
2023/01/28 07:31:00;;;;;;;13.00;10.50;;;5.50;92.40;;;;;;5034562;28;20135;-67
2023/01/28 07:33:25;;;;;;;11.95;10.15;;;5.40;91.80;;;;;;5035348;28;20030;-67
2023/01/28 07:35:51;;;;;;;12.27;9.27;;;5.10;91.40;;;;;;5034812;28;20030;-67
2023/01/28 07:38:17;;;;;;;12.25;10.55;;;4.90;92.50;;;;;;5034422;28;20030;-67
2023/01/28 07:40:44;;;;;;;13.15;10.02;;;4.70;92.10;;;;;;5035006;28;20037;-67
2023/01/28 07:43:10;;;;;;;13.73;10.82;;;4.70;92.60;;;;;;5034272;28;20375;-66
2023/01/28 07:45:36;;;;;;;14.68;11.63;;;4.70;92.60;;;;;;5034493;28;20029;-66
2023/01/28 07:48:04;;;;;;;24.60;14.00;;;4.60;92.60;;;;;;5034298;28;20086;-67
2023/01/28 07:50:32;;;;;;;19.60;12.40;;;4.60;93.00;;;;;;5033180;28;20378;-67
2023/01/28 07:53:01;;;;;;;15.32;11.20;;;4.80;93.40;;;;;;5034545;28;20044;-68
2023/01/28 07:55:26;;;;;;;14.30;11.18;;;4.80;93.10;;;;;;5034031;28;20474;-67
2023/01/28 07:57:57;;;;;;;11.38;8.80;;;4.90;93.00;;;;;;5034779;28;20120;-69
2023/01/28 08:00:24;;;;;;;16.30;10.40;;;5.00;93.30;;;;;;5034577;28;20065;-69
2023/01/28 08:02:54;;;;;;;13.27;10.70;;;5.10;93.20;;;;;;5032341;28;20056;-67
2023/01/28 08:05:20;;;;;;;10.50;8.45;;;4.90;92.50;;;;;;5034435;28;20029;-66
2023/01/28 08:07:47;;;;;;;5.53;5.00;;;5.00;93.80;;;;;;5033165;28;20033;-67
2023/01/28 08:10:14;;;;;;;11.15;9.02;;;5.30;95.40;;;;;;5034122;28;20034;-66
2023/01/28 08:12:40;;;;;;;14.52;10.52;;;5.60;95.60;;;;;;5033714;28;20037;-67
2023/01/28 08:15:06;;;;;;;11.02;8.73;;;5.70;94.00;;;;;;5034127;28;20033;-67
2023/01/28 08:17:32;;;;;;;10.43;8.40;;;5.70;93.70;;;;;;5032471;28;20034;-67
2023/01/28 08:19:58;;;;;;;11.27;9.00;;;5.80;93.90;;;;;;5033960;28;20466;-67
2023/01/28 08:22:26;;;;;;;9.20;8.15;;;5.90;93.50;;;;;;5033960;28;20036;-68
2023/01/28 08:24:52;;;;;;;9.18;7.82;;;6.10;93.70;;;;;;5033850;28;20478;-67
2023/01/28 08:27:18;;;;;;;10.52;8.93;;;6.20;94.00;;;;;;5034226;28;20029;-67
2023/01/28 08:29:44;;;;;;;11.40;8.77;;;6.30;93.00;;;;;;5032948;28;20037;-67
2023/01/28 08:32:10;;;;;;;11.27;9.07;;;6.30;92.90;;;;;;5032625;28;20034;-67
2023/01/28 08:34:35;;;;;;;8.25;7.32;;;6.30;91.60;;;;;;5033779;28;20032;-67
2023/01/28 08:37:01;;;;;;;6.68;5.90;;;6.30;91.70;;;;;;5033652;28;20030;-67
2023/01/28 08:39:27;;;;;;;8.15;7.03;;;6.30;92.30;;;;;;5033607;28;20033;-67
2023/01/28 08:41:52;;;;;;;5.85;4.72;;;6.50;92.80;;;;;;5033202;28;20026;-67
2023/01/28 08:44:18;;;;;;;9.15;7.53;;;6.50;93.40;;;;;;5033592;28;20470;-67
2023/01/28 08:46:44;;;;;;;8.05;7.25;;;6.70;92.30;;;;;;5031991;28;20036;-67
2023/01/28 08:49:09;;;;;;;7.82;6.85;;;6.50;90.40;;;;;;5033079;28;20033;-67
2023/01/28 08:51:35;;;;;;;10.82;7.10;;;6.40;90.90;;;;;;5032526;28;20036;-67
2023/01/28 08:54:01;;;;;;;7.15;6.30;;;6.40;91.50;;;;;;5032716;28;20351;-67
2023/01/28 08:56:26;;;;;;;9.15;7.07;;;6.30;90.80;;;;;;5033115;28;20458;-68
2023/01/28 08:58:52;;;;;;;7.60;6.78;;;6.40;91.50;;;;;;5033264;28;20061;-70
2023/01/28 09:01:18;;;;;;;6.75;6.05;;;6.50;91.80;;;;;;5033257;28;20087;-70
2023/01/28 09:03:43;;;;;;;11.23;5.97;;;6.60;91.90;;;;;;5032630;28;20083;-70
2023/01/28 09:06:09;;;;;;;8.57;6.60;;;6.60;91.80;;;;;;5032028;28;20471;-70
2023/01/28 09:08:35;;;;;;;8.40;7.55;;;6.70;92.20;;;;;;5033228;28;20420;-69
2023/01/28 09:11:00;;;;;;;7.50;6.50;;;6.60;90.20;;;;;;5033300;28;20034;-70
2023/01/28 09:13:26;;;;;;;9.82;5.75;;;6.40;90.50;;;;;;5033151;28;20045;-70
2023/01/28 09:15:52;;;;;;;6.32;5.68;;;6.40;91.70;;;;;;5033443;28;20030;-70
2023/01/28 09:18:18;;;;;;;6.78;6.18;;;6.40;90.90;;;;;;5033046;28;20073;-70
2023/01/28 09:20:44;;;;;;;5.13;4.57;;;6.30;91.10;;;;;;5033045;28;20032;-70
2023/01/28 09:23:10;;;;;;;4.88;4.40;;;6.30;91.80;;;;;;5035313;28;20022;-70
2023/01/28 09:25:36;;;;;;;5.32;4.75;;;6.40;92.90;;;;;;5035681;28;20033;-70
2023/01/28 09:28:03;;;;;;;7.15;6.43;;;6.60;93.20;;;;;;5019189;28;20030;-70
2023/01/28 09:30:29;;;;;;;10.57;6.07;;;6.60;91.20;;;;;;5036816;28;20052;-70
2023/01/28 09:32:56;;;;;;;7.22;6.53;;;6.50;91.10;;;;;;5036988;28;20462;-70
2023/01/28 09:35:22;;;;;;;6.93;5.47;;;6.50;90.90;;;;;;5019801;28;20124;-71
2023/01/28 09:37:49;;;;;;;6.57;5.07;;;6.50;90.90;;;;;;5036890;28;20068;-69
2023/01/28 09:40:42;;;;;;;8.13;6.70;;;6.50;91.10;;;;;;5037214;28;20053;-70
2023/01/28 09:43:28;;;;;;;8.80;6.93;;;6.40;90.20;;;;;;5035994;28;20060;-70
2023/01/28 09:46:04;;;;;;;5.70;5.10;;;6.30;90.40;;;;;;5037005;28;20405;-69
2023/01/28 09:48:43;;;;;;;7.55;6.70;;;6.20;90.80;;;;;;5036194;28;20481;-69
2023/01/28 09:51:19;;;;;;;7.47;6.72;;;6.20;90.80;;;;;;5036403;28;20053;-69
2023/01/28 09:53:49;;;;;;;8.77;7.68;;;6.10;90.20;;;;;;5036380;28;20025;-69
2023/01/28 09:56:24;;;;;;;8.43;7.38;;;5.90;90.50;;;;;;5036277;28;20049;-68
2023/01/28 09:58:50;;;;;;;8.55;7.07;;;5.70;90.80;;;;;;5035485;28;20026;-68
2023/01/28 10:02:14;;;;;;;8.48;7.63;;;5.40;91.10;;;;;;5035902;28;20112;-69
2023/01/28 10:04:43;;;;;;;8.73;7.70;;;5.40;91.70;;;;;;5013041;28;20057;-69
2023/01/28 10:07:11;;;;;;;8.15;6.85;;;5.50;91.80;;;;;;5036637;28;20420;-68
2023/01/28 10:09:55;;;;;;;10.57;7.78;;;5.50;92.00;;;;;;5036212;28;20037;-68
2023/01/28 10:13:08;;;;;;;8.52;7.25;;;5.50;91.80;;;;;;5036530;28;20033;-68
2023/01/28 10:15:55;;;;;;;8.38;6.47;;;5.60;91.40;;;;;;5031018;28;20080;-71
2023/01/28 10:18:48;;;;;;;8.43;7.53;;;5.40;91.30;;;;;;5036109;28;20121;-70
2023/01/28 10:21:22;;;;;;;7.30;6.55;;;5.30;92.00;;;;;;5034433;28;20037;-71
2023/01/28 10:24:17;;;;;;;10.93;6.22;;;5.30;92.00;;;;;;5034398;28;20375;-69
2023/01/28 10:26:43;;;;;;;9.05;6.93;;;5.50;92.60;;;;;;5035198;28;20041;-70
2023/01/28 10:29:14;;;;;;;7.70;6.22;;;5.60;91.90;;;;;;5035641;28;20025;-70
2023/01/28 10:32:02;;;;;;;8.55;5.97;;;5.70;92.40;;;;;;5034457;28;20033;-71
2023/01/28 10:34:28;;;;;;;8.25;5.30;;;5.90;92.50;;;;;;5033465;28;20025;-70
2023/01/28 10:36:56;;;;;;;7.72;4.70;;;6.10;92.40;;;;;;5035996;28;20079;-70
2023/01/28 10:39:24;;;;;;;7.55;5.15;;;6.20;92.20;;;;;;5035970;28;20083;-71
2023/01/28 10:41:50;;;;;;;11.80;4.97;;;6.20;90.70;;;;;;5036272;28;20346;-72
2023/01/28 10:44:37;;;;;;;6.40;5.70;;;6.00;91.10;;;;;;5035319;28;20116;-71
2023/01/28 10:47:34;;;;;;;6.65;5.85;;;6.00;91.00;;;;;;5035299;28;20021;-71
2023/01/28 10:50:01;;;;;;;9.23;5.45;;;5.90;91.10;;;;;;5035094;28;20044;-70
2023/01/28 10:52:27;;;;;;;7.00;5.13;;;5.90;91.10;;;;;;5034717;28;20370;-71
2023/01/28 10:55:00;;;;;;;6.47;5.88;;;5.90;91.20;;;;;;5034801;28;20029;-71
2023/01/28 10:57:26;;;;;;;13.55;6.00;;;5.90;90.90;;;;;;5035209;28;20117;-72
2023/01/28 10:59:52;;;;;;;8.90;6.57;;;5.70;91.00;;;;;;5035622;28;20044;-71
2023/01/28 11:02:27;;;;;;;9.63;6.50;;;5.60;91.60;;;;;;5035388;28;20053;-72
2023/01/28 11:05:03;;;;;;;16.38;9.63;;;5.70;91.70;;;;;;5033551;28;20063;-69
2023/01/28 11:07:29;;;;;;;10.18;6.70;;;5.90;92.10;;;;;;5035350;28;20082;-68
2023/01/28 11:09:55;;;;;;;9.18;6.00;;;5.90;91.90;;;;;;5033880;28;20034;-69
2023/01/28 11:12:29;;;;;;;6.45;5.60;;;6.00;91.70;;;;;;5034351;28;20120;-69
2023/01/28 11:14:59;;;;;;;8.60;5.85;;;6.30;91.80;;;;;;5034808;28;20406;-68
2023/01/28 11:17:29;;;;;;;6.38;5.78;;;6.20;90.70;;;;;;5035063;28;20037;-69
2023/01/28 11:19:57;;;;;;;15.70;6.80;;;6.10;90.90;;;;;;5033357;28;20116;-68
2023/01/28 11:22:31;;;;;;;8.93;7.15;;;6.10;91.10;;;;;;5035052;28;20489;-69
2023/01/28 11:24:58;;;;;;;7.53;6.15;;;6.10;91.10;;;;;;5034476;28;20036;-69
2023/01/28 11:27:31;;;;;;;7.15;6.35;;;5.80;90.80;;;;;;5033282;28;20116;-70
2023/01/28 11:30:02;;;;;;;6.50;5.80;;;5.60;91.20;;;;;;5033487;28;20474;-69
2023/01/28 11:32:29;;;;;;;9.70;5.85;;;5.70;91.50;;;;;;5035528;28;20120;-70
2023/01/28 11:34:59;;;;;;;7.88;6.18;;;5.80;91.70;;;;;;5035026;28;20117;-69
2023/01/28 11:37:27;;;;;;;7.93;6.20;;;6.10;92.00;;;;;;5034413;28;20061;-69
2023/01/28 11:40:03;;;;;;;9.02;5.72;;;6.30;91.40;;;;;;5034378;28;20030;-70
2023/01/28 11:42:30;;;;;;;8.15;6.40;;;6.50;91.40;;;;;;5034621;28;20132;-69
2023/01/28 11:44:56;;;;;;;7.82;7.03;;;6.90;91.10;;;;;;5034730;28;20394;-74
2023/01/28 11:47:30;;;;;;;9.65;6.85;;;6.90;90.20;;;;;;5034407;28;20087;-69
2023/01/28 11:50:23;;;;;;;6.47;5.80;;;6.90;89.20;;;;;;5034111;28;20025;-70
2023/01/28 11:53:07;;;;;;;6.67;5.90;;;7.00;90.10;;;;;;5033807;28;20068;-70
2023/01/28 11:55:33;;;;;;;10.25;6.68;;;7.20;88.40;;;;;;5034426;28;20033;-70
2023/01/28 11:58:23;;;;;;;6.30;5.43;;;7.20;88.10;;;;;;5034089;28;20021;-70
2023/01/28 12:01:06;;;;;;;6.47;5.05;;;7.20;88.30;;;;;;5033768;28;20048;-69
2023/01/28 12:04:17;;;;;;;10.90;7.55;;;7.60;89.00;;;;;;5034576;28;20049;-70
2023/01/28 12:07:06;;;;;;;6.82;6.13;;;7.80;87.60;;;;;;5033212;28;20038;-70
2023/01/28 12:09:41;;;;;;;6.00;5.40;;;8.10;86.50;;;;;;5032554;28;20029;-70
2023/01/28 12:12:10;;;;;;;8.27;7.15;;;8.20;85.90;;;;;;5033644;28;20044;-70
2023/01/28 12:14:50;;;;;;;9.05;7.90;;;8.30;85.70;;;;;;5033754;28;20142;-70
2023/01/28 12:17:31;;;;;;;11.43;7.95;;;8.30;83.80;;;;;;5033599;28;20029;-69
2023/01/28 12:20:01;;;;;;;8.00;7.20;;;8.20;83.90;;;;;;5033428;28;20386;-70
2023/01/28 12:22:33;;;;;;;12.88;7.97;;;8.00;84.60;;;;;;5033524;28;20092;-69
2023/01/28 12:25:11;;;;;;;8.35;7.40;;;8.00;84.80;;;;;;5032255;28;20080;-70
2023/01/28 12:28:08;;;;;;;9.05;6.93;;;8.10;85.10;;;;;;5034028;28;20044;-70
2023/01/28 12:31:00;;;;;;;7.22;6.50;;;8.30;84.90;;;;;;5033575;28;20065;-70
2023/01/28 12:33:25;;;;;;;8.07;6.75;;;8.50;84.70;;;;;;5033421;28;20088;-72
2023/01/28 12:36:11;;;;;;;7.65;6.80;;;8.70;83.30;;;;;;5033474;28;20026;-72
2023/01/28 12:39:10;;;;;;;8.73;6.88;;;8.80;82.40;;;;;;5032019;28;20029;-71
2023/01/28 12:41:45;;;;;;;7.70;6.75;;;8.90;82.20;;;;;;5032422;28;20079;-73
2023/01/28 12:44:21;;;;;;;7.90;6.88;;;9.00;81.40;;;;;;5033404;28;20112;-73
2023/01/28 12:46:51;;;;;;;7.78;6.97;;;8.90;81.30;;;;;;5033472;28;20375;-72
2023/01/28 12:49:29;;;;;;;8.35;6.90;;;8.90;80.90;;;;;;5033191;28;20037;-72
2023/01/28 12:52:10;;;;;;;11.38;7.13;;;9.00;80.90;;;;;;5033195;28;20053;-72
2023/01/28 12:54:39;;;;;;;10.13;7.93;;;9.10;80.60;;;;;;5032425;28;20029;-73
2023/01/28 12:57:13;;;;;;;8.60;7.20;;;9.10;79.50;;;;;;5035403;28;20030;-71
2023/01/28 12:59:48;;;;;;;9.50;7.45;;;8.80;79.80;;;;;;5038318;28;20029;-70
2023/01/28 13:02:22;;;;;;;9.30;6.90;;;8.80;80.00;;;;;;5040213;28;20041;-72
2023/01/28 13:05:15;;;;;;;10.18;7.18;;;8.70;80.30;;;;;;5039933;28;20029;-70
2023/01/28 13:07:53;;;;;;;11.45;8.15;;;8.70;80.60;;;;;;5040290;28;20039;-70
2023/01/28 13:10:19;;;;;;;8.25;6.20;;;8.70;80.50;;;;;;5040288;28;20033;-71
2023/01/28 13:12:45;;;;;;;10.10;7.15;;;8.70;81.00;;;;;;5039568;28;20102;-70
2023/01/28 13:15:14;;;;;;;12.52;7.50;;;8.70;81.00;;;;;;5039214;28;20049;-70
2023/01/28 13:17:52;;;;;;;10.55;7.07;;;8.60;80.30;;;;;;5039269;28;20036;-70
2023/01/28 13:20:37;;;;;;;8.05;6.47;;;8.50;80.80;;;;;;5039587;28;20029;-70
2023/01/28 13:23:20;;;;;;;8.90;7.13;;;8.60;81.50;;;;;;5039565;28;20032;-70
2023/01/28 13:25:51;;;;;;;9.67;7.20;;;8.60;80.60;;;;;;5039445;28;20061;-70
2023/01/28 13:28:31;;;;;;;10.10;7.13;;;8.60;81.20;;;;;;5039804;28;20284;-70
2023/01/28 13:31:17;;;;;;;9.40;7.90;;;8.60;80.40;;;;;;5039667;28;20029;-71
2023/01/28 13:34:07;;;;;;;8.70;7.03;;;8.60;80.10;;;;;;5040361;28;20037;-70
2023/01/28 13:36:45;;;;;;;7.55;6.75;;;8.70;81.10;;;;;;5039442;28;20040;-70
2023/01/28 13:39:11;;;;;;;9.27;6.72;;;8.70;81.00;;;;;;5039591;28;20087;-70
2023/01/28 13:41:42;;;;;;;9.90;7.07;;;8.80;80.00;;;;;;5039842;28;20105;-70
2023/01/28 13:44:26;;;;;;;9.32;6.85;;;8.90;79.80;;;;;;5039362;28;20029;-70